Hinojosa Del Duque, Spain
Current Conditions -  °F | °C
As of 5:00 PM on Thursday 23 Oct 2014 (Local Time) from LEBA Reporting Station
Clear Clear  
Wind Chill: 82°   Ceiling: Unl
Heat Index: 82°   Visibility: 6mi
Dew Point: 39°   Wind: 6mph
Humidity: 21%   Direction: 80°E
Pressure: 30.06"   Gusts: NA
Location:  38.5°N, 5.15°W
Report Text: LEBA 231500Z AUTO 08005KT 050V120 CAVOK 28/04 Q1018
Loading
Personal Weather Stations






























Interactive Weather Map
Tropical Storm Tracking
New forecast layout! Learn more

10-Day Weather Forecast

Advertisements
Track Severe Weather on mobile